createdAt,value
2019-01-20T00:00:36.281Z,31.35
2019-01-20T00:03:08.138Z,29.87
2019-01-20T00:05:39.960Z,27.52
2019-01-20T00:08:11.950Z,27.90
2019-01-20T00:10:43.790Z,26.75
2019-01-20T00:13:15.765Z,25.17
2019-01-20T00:15:47.922Z,25.97
2019-01-20T00:18:22.544Z,25.45
2019-01-20T00:20:54.429Z,25.68
2019-01-20T00:23:27.882Z,25.88
2019-01-20T00:25:59.734Z,24.77
2019-01-20T00:28:31.594Z,24.45
2019-01-20T00:31:06.300Z,23.67
2019-01-20T00:33:39.262Z,28.98
2019-01-20T00:36:11.110Z,26.33
2019-01-20T00:38:43.082Z,26.05
2019-01-20T00:41:14.952Z,26.93
2019-01-20T00:43:46.811Z,26.65
2019-01-20T00:46:18.641Z,25.50
2019-01-20T00:48:50.493Z,22.82
2019-01-20T00:51:22.739Z,25.35
2019-01-20T00:53:56.308Z,23.18
2019-01-20T00:56:28.177Z,24.98
2019-01-20T00:59:01.317Z,25.70
2019-01-20T01:01:33.177Z,23.95
2019-01-20T01:04:07.335Z,24.87
2019-01-20T01:06:41.774Z,26.00
2019-01-20T01:09:19.029Z,27.22
2019-01-20T01:11:53.008Z,25.80
2019-01-20T01:14:25.953Z,24.72
2019-01-20T01:16:57.790Z,25.20
2019-01-20T01:19:31.851Z,29.15
2019-01-20T01:22:08.472Z,25.62
2019-01-20T01:24:40.321Z,27.32
2019-01-20T01:27:12.212Z,24.00
2019-01-20T01:29:44.072Z,25.82
2019-01-20T01:32:16.854Z,25.80
2019-01-20T01:34:48.831Z,24.47
2019-01-20T01:37:20.697Z,26.27
2019-01-20T01:39:52.537Z,26.95
2019-01-20T01:42:24.376Z,25.23
2019-01-20T01:44:56.227Z,25.08
2019-01-20T01:47:29.017Z,27.22
2019-01-20T01:50:00.915Z,25.90
2019-01-20T01:52:32.767Z,23.90
2019-01-20T01:55:04.643Z,24.95
2019-01-20T01:57:36.526Z,27.40
2019-01-20T02:00:31.482Z,31.05
2019-01-20T02:03:03.339Z,26.57
2019-01-20T02:05:35.150Z,24.30
2019-01-20T02:08:09.164Z,23.50
2019-01-20T02:10:40.990Z,23.83
2019-01-20T02:13:13.412Z,21.70
2019-01-20T02:15:45.234Z,22.07
2019-01-20T02:18:17.082Z,21.40
2019-01-20T02:20:50.323Z,23.10
2019-01-20T02:23:22.186Z,22.35
2019-01-20T02:25:54.032Z,23.05
2019-01-20T02:28:27.257Z,22.40
2019-01-20T02:30:59.081Z,23.25
2019-01-20T02:33:33.710Z,21.75
2019-01-20T02:36:07.977Z,21.65
2019-01-20T02:38:42.591Z,21.00
2019-01-20T02:41:14.420Z,23.02
2019-01-20T02:43:46.299Z,23.27
2019-01-20T02:46:18.118Z,26.48
2019-01-20T02:48:51.840Z,23.25
2019-01-20T02:51:27.231Z,24.20
2019-01-20T02:53:59.003Z,22.45
2019-01-20T02:56:36.074Z,23.07
2019-01-20T02:59:10.277Z,23.20
2019-01-20T03:01:42.434Z,22.05
2019-01-20T03:04:14.374Z,24.67
2019-01-20T03:06:47.896Z,22.32
2019-01-20T03:09:23.618Z,22.48
2019-01-20T03:11:53.460Z,23.02
2019-01-20T03:14:25.453Z,22.90
2019-01-20T03:16:59.016Z,22.60
2019-01-20T03:19:31.293Z,22.35
2019-01-20T03:22:05.190Z,23.65
2019-01-20T03:24:37.057Z,22.98
2019-01-20T03:27:08.885Z,22.27
2019-01-20T03:29:41.876Z,23.27
2019-01-20T03:32:16.233Z,22.42
2019-01-20T03:34:48.093Z,21.87
2019-01-20T03:37:19.960Z,23.12
2019-01-20T03:39:54.576Z,21.77
2019-01-20T03:42:26.414Z,22.37
2019-01-20T03:44:58.255Z,23.27
2019-01-20T03:47:30.092Z,22.70
2019-01-20T03:50:01.965Z,22.60
2019-01-20T03:52:33.804Z,21.68
2019-01-20T03:55:06.569Z,22.25
2019-01-20T03:57:38.429Z,23.55
2019-01-20T04:00:21.364Z,21.05
2019-01-20T04:03:00.601Z,21.60
2019-01-20T04:05:32.421Z,21.35
2019-01-20T04:08:04.301Z,20.57
2019-01-20T04:10:36.144Z,21.20
2019-01-20T04:13:09.505Z,22.90
2019-01-20T04:15:41.344Z,22.20
2019-01-20T04:18:13.197Z,23.87
2019-01-20T04:20:45.060Z,20.88
2019-01-20T04:23:16.886Z,22.10
2019-01-20T04:25:49.043Z,22.50
2019-01-20T04:28:20.869Z,22.07
2019-01-20T04:30:52.729Z,22.60
2019-01-20T04:33:24.584Z,22.93
2019-01-20T04:35:56.422Z,22.35
2019-01-20T04:38:32.576Z,22.27
2019-01-20T04:41:04.913Z,21.60
2019-01-20T04:43:37.869Z,21.20
2019-01-20T04:46:10.792Z,24.00
2019-01-20T04:48:42.667Z,21.73
2019-01-20T04:51:14.625Z,21.35
2019-01-20T04:53:46.858Z,21.85
2019-01-20T04:56:18.750Z,20.43
2019-01-20T04:58:50.672Z,21.60
2019-01-20T05:01:22.491Z,19.92
2019-01-20T05:03:54.325Z,21.42
2019-01-20T05:06:26.173Z,21.68
2019-01-20T05:08:58.024Z,21.40
2019-01-20T05:11:29.862Z,21.70
2019-01-20T05:14:01.705Z,21.65
2019-01-20T05:16:33.610Z,20.65
2019-01-20T05:19:05.459Z,20.92
2019-01-20T05:21:37.328Z,21.45
2019-01-20T05:24:09.187Z,20.30
2019-01-20T05:26:41.025Z,21.20
2019-01-20T05:29:12.901Z,20.52
2019-01-20T05:31:44.755Z,21.07
2019-01-20T05:34:16.617Z,21.68
2019-01-20T05:36:48.455Z,18.50
2019-01-20T05:39:20.326Z,20.97
2019-01-20T05:41:52.161Z,19.85
2019-01-20T05:44:24.098Z,21.37
2019-01-20T05:46:55.950Z,20.75
2019-01-20T05:49:27.837Z,21.12
2019-01-20T05:51:59.687Z,19.80
2019-01-20T05:54:31.518Z,21.52
2019-01-20T05:57:03.574Z,20.65
2019-01-20T05:59:35.417Z,21.10
2019-01-20T06:02:08.560Z,25.75
2019-01-20T06:04:40.381Z,28.75
2019-01-20T06:07:12.227Z,24.45
2019-01-20T06:09:45.725Z,21.93
2019-01-20T06:12:17.577Z,24.85
2019-01-20T06:14:51.944Z,22.15
2019-01-20T06:17:23.796Z,22.42
2019-01-20T06:19:55.632Z,22.20
2019-01-20T06:22:27.550Z,21.70
2019-01-20T06:24:59.389Z,21.80
2019-01-20T06:27:31.267Z,22.48
2019-01-20T06:30:03.108Z,22.37
2019-01-20T06:32:34.978Z,22.55
2019-01-20T06:35:07.092Z,22.58
2019-01-20T06:37:39.247Z,22.50
2019-01-20T06:40:14.919Z,22.10
2019-01-20T06:42:46.780Z,21.17
2019-01-20T06:45:23.022Z,22.45
2019-01-20T06:47:57.204Z,23.25
2019-01-20T06:50:31.473Z,22.75
2019-01-20T06:53:04.882Z,22.30
2019-01-20T06:55:36.770Z,22.75
2019-01-20T06:58:12.508Z,21.02
2019-01-20T07:00:44.477Z,20.95
2019-01-20T07:03:19.353Z,22.20
2019-01-20T07:05:51.428Z,22.42
2019-01-20T07:08:23.286Z,21.52
2019-01-20T07:10:55.165Z,22.60
2019-01-20T07:13:27.033Z,23.85
2019-01-20T07:16:01.795Z,23.10
2019-01-20T07:18:35.408Z,22.87
2019-01-20T07:21:10.216Z,22.80
2019-01-20T07:23:42.114Z,23.73
2019-01-20T07:26:13.949Z,25.00
2019-01-20T07:28:47.288Z,26.33
2019-01-20T07:31:19.758Z,23.05
2019-01-20T07:33:51.791Z,23.22
2019-01-20T07:36:23.625Z,23.12
2019-01-20T07:38:57.430Z,23.67
2019-01-20T07:41:29.270Z,23.92
2019-01-20T07:44:04.127Z,24.82
2019-01-20T07:46:35.986Z,23.47
2019-01-20T07:49:09.477Z,24.60
2019-01-20T07:51:41.344Z,24.25
2019-01-20T07:54:13.250Z,24.92
2019-01-20T07:56:45.150Z,24.47
2019-01-20T07:59:18.831Z,23.50
2019-01-20T08:01:50.682Z,25.12
2019-01-20T08:04:24.835Z,24.40
2019-01-20T08:06:56.696Z,25.48
2019-01-20T08:09:28.560Z,28.47
2019-01-20T08:12:01.617Z,31.80
2019-01-20T08:14:35.147Z,28.65
2019-01-20T08:17:08.978Z,29.98
2019-01-20T08:19:42.654Z,29.02
2019-01-20T08:22:14.498Z,27.37
2019-01-20T08:24:47.818Z,31.68
2019-01-20T08:27:19.669Z,31.73
2019-01-20T08:29:51.542Z,28.35
2019-01-20T08:32:27.991Z,24.67
2019-01-20T08:34:59.876Z,27.37
2019-01-20T08:37:34.315Z,26.97
2019-01-20T08:40:10.300Z,27.35
2019-01-20T08:42:44.467Z,26.27
2019-01-20T08:45:49.284Z,27.93
2019-01-20T08:48:22.729Z,24.23
2019-01-20T08:50:54.614Z,25.88
2019-01-20T08:53:26.499Z,26.97
2019-01-20T08:55:58.351Z,26.70
2019-01-20T08:58:30.234Z,27.10
2019-01-20T09:01:02.113Z,26.68
2019-01-20T09:03:33.979Z,26.55
2019-01-20T09:06:05.855Z,25.82
2019-01-20T09:08:37.739Z,26.33
2019-01-20T09:11:09.574Z,27.25
2019-01-20T09:13:41.735Z,28.10
2019-01-20T09:16:13.547Z,30.10
2019-01-20T09:18:45.386Z,29.48
2019-01-20T09:21:17.214Z,28.85
2019-01-20T09:23:49.072Z,31.42
2019-01-20T09:26:20.951Z,31.52
2019-01-20T09:28:52.782Z,30.55
2019-01-20T09:31:24.686Z,29.63
2019-01-20T09:33:56.649Z,30.82
2019-01-20T09:36:28.508Z,30.75
2019-01-20T09:39:00.339Z,30.27
2019-01-20T09:41:32.236Z,29.00
2019-01-20T09:44:04.166Z,31.02
2019-01-20T09:46:36.033Z,26.95
2019-01-20T09:49:07.890Z,27.30
2019-01-20T09:51:39.759Z,27.52
2019-01-20T09:54:11.604Z,28.07
2019-01-20T09:56:43.451Z,28.98
2019-01-20T09:59:15.339Z,28.17
2019-01-20T10:01:49.239Z,27.48
2019-01-20T10:04:21.078Z,28.67
2019-01-20T10:06:52.992Z,29.15
2019-01-20T10:09:24.845Z,28.87
2019-01-20T10:11:56.709Z,35.08
2019-01-20T10:14:28.570Z,32.98
2019-01-20T10:17:00.450Z,33.48
2019-01-20T10:19:32.306Z,28.17
2019-01-20T10:22:04.159Z,27.90
2019-01-20T10:24:37.115Z,29.00
2019-01-20T10:27:09.020Z,30.72
2019-01-20T10:29:40.959Z,29.25
2019-01-20T10:32:12.860Z,31.65
2019-01-20T10:34:45.229Z,30.75
2019-01-20T10:37:17.400Z,29.77
2019-01-20T10:39:49.351Z,34.65
2019-01-20T10:42:21.301Z,32.90
2019-01-20T10:44:53.185Z,34.43
2019-01-20T10:47:25.030Z,33.15
2019-01-20T10:49:56.906Z,33.02
2019-01-20T10:52:28.810Z,30.40
2019-01-20T10:55:00.678Z,33.45
2019-01-20T10:57:32.588Z,32.93
2019-01-20T11:00:07.538Z,35.43
2019-01-20T11:02:39.381Z,34.65
2019-01-20T11:05:11.695Z,34.65
2019-01-20T11:07:43.665Z,33.58
2019-01-20T11:10:17.152Z,33.13
2019-01-20T11:12:48.963Z,30.85
2019-01-20T11:15:21.788Z,31.25
2019-01-20T11:17:53.647Z,33.08
2019-01-20T11:20:25.952Z,30.62
2019-01-20T11:22:57.829Z,36.30
2019-01-20T11:25:33.493Z,31.97
2019-01-20T11:28:05.640Z,28.30
2019-01-20T11:30:37.497Z,28.98
2019-01-20T11:33:09.703Z,27.67
2019-01-20T11:35:41.638Z,25.45
2019-01-20T11:38:13.602Z,27.05
2019-01-20T11:40:45.459Z,26.20
2019-01-20T11:43:17.326Z,28.15
2019-01-20T11:45:49.164Z,24.30
2019-01-20T11:48:22.148Z,29.72
2019-01-20T11:50:54.001Z,44.42
2019-01-20T11:53:25.843Z,27.98
2019-01-20T11:55:57.813Z,27.02
2019-01-20T11:58:29.673Z,26.87
2019-01-20T12:01:01.570Z,26.50
2019-01-20T12:03:34.556Z,27.67
2019-01-20T12:06:07.696Z,28.00
2019-01-20T12:08:39.585Z,26.30
2019-01-20T12:11:11.429Z,27.40
2019-01-20T12:13:43.462Z,27.70
2019-01-20T12:16:15.336Z,25.68
2019-01-20T12:18:47.214Z,27.67
2019-01-20T12:21:19.103Z,26.40
2019-01-20T12:23:51.152Z,25.50
2019-01-20T12:26:22.998Z,26.00
2019-01-20T12:28:54.813Z,26.42
2019-01-20T12:31:26.708Z,27.60
2019-01-20T12:33:58.557Z,26.90
2019-01-20T12:36:30.409Z,28.00
2019-01-20T12:39:02.218Z,26.95
2019-01-20T12:41:34.174Z,25.60
2019-01-20T12:44:06.436Z,25.72
2019-01-20T12:46:38.283Z,27.67
2019-01-20T12:49:10.138Z,24.57
2019-01-20T12:51:42.433Z,23.80
2019-01-20T12:54:14.328Z,22.40
2019-01-20T12:56:47.350Z,22.00
2019-01-20T12:59:19.287Z,25.17
2019-01-20T13:01:51.264Z,23.87
2019-01-20T13:04:23.135Z,22.00
2019-01-20T13:06:55.010Z,25.90
2019-01-20T13:09:26.857Z,23.18
2019-01-20T13:11:58.740Z,23.57
2019-01-20T13:14:30.684Z,24.35
2019-01-20T13:17:02.663Z,24.87
2019-01-20T13:19:35.600Z,24.40
2019-01-20T13:22:07.475Z,23.70
2019-01-20T13:24:39.335Z,26.07
2019-01-20T13:27:11.193Z,24.82
2019-01-20T13:29:43.065Z,26.20
2019-01-20T13:32:16.065Z,23.25
2019-01-20T13:34:47.920Z,25.40
2019-01-20T13:37:19.761Z,24.65
2019-01-20T13:39:51.648Z,23.85
2019-01-20T13:42:23.500Z,24.72
2019-01-20T13:44:55.473Z,24.95
2019-01-20T13:47:27.337Z,23.83
2019-01-20T13:49:59.318Z,24.70
2019-01-20T13:52:31.177Z,23.83
2019-01-20T13:55:04.425Z,23.65
2019-01-20T13:57:36.290Z,23.25
2019-01-20T14:00:16.695Z,22.80
2019-01-20T14:02:49.600Z,23.70
2019-01-20T14:05:21.465Z,21.57
2019-01-20T14:07:53.394Z,23.07
2019-01-20T14:10:28.249Z,23.85
2019-01-20T14:13:00.147Z,23.80
2019-01-20T14:15:32.027Z,24.10
2019-01-20T14:18:03.964Z,25.25
2019-01-20T14:20:35.893Z,26.50
2019-01-20T14:23:07.758Z,25.90
2019-01-20T14:25:39.624Z,26.05
2019-01-20T14:28:11.486Z,24.77
2019-01-20T14:30:43.301Z,25.27
2019-01-20T14:33:15.201Z,27.05
2019-01-20T14:35:47.073Z,27.27
2019-01-20T14:38:18.931Z,26.30
2019-01-20T14:40:50.776Z,27.50
2019-01-20T14:43:22.673Z,27.17
2019-01-20T14:45:54.500Z,28.27
2019-01-20T14:48:26.364Z,29.18
2019-01-20T14:50:58.180Z,28.45
2019-01-20T14:53:30.073Z,28.20
2019-01-20T14:56:01.911Z,30.37
2019-01-20T14:58:33.779Z,29.82
2019-01-20T15:01:05.843Z,31.15
2019-01-20T15:03:37.728Z,33.08
2019-01-20T15:06:09.561Z,29.55
2019-01-20T15:08:41.417Z,29.20
2019-01-20T15:11:14.853Z,30.32
2019-01-20T15:13:46.716Z,29.18
2019-01-20T15:16:18.926Z,30.32
2019-01-20T15:18:50.774Z,30.15
2019-01-20T15:21:22.743Z,28.50
2019-01-20T15:23:54.603Z,30.57
2019-01-20T15:26:26.487Z,31.70
2019-01-20T15:28:59.986Z,30.25
2019-01-20T15:31:32.924Z,31.52
2019-01-20T15:34:08.877Z,31.93
2019-01-20T15:36:40.788Z,30.55
2019-01-20T15:39:12.690Z,32.28
2019-01-20T15:41:44.547Z,33.58
2019-01-20T15:44:16.409Z,34.13
2019-01-20T15:46:48.272Z,30.70
2019-01-20T15:49:20.152Z,33.73
2019-01-20T15:51:52.017Z,30.95
2019-01-20T15:54:23.880Z,32.60
2019-01-20T15:56:55.838Z,32.25
2019-01-20T15:59:27.671Z,33.00
2019-01-20T16:01:59.537Z,31.42
2019-01-20T16:04:31.447Z,31.65
2019-01-20T16:07:03.296Z,31.50
2019-01-20T16:09:35.156Z,30.20
2019-01-20T16:12:07.106Z,29.95
2019-01-20T16:14:38.972Z,33.28
2019-01-20T16:17:11.988Z,32.10
2019-01-20T16:19:44.052Z,31.15
2019-01-20T16:22:16.014Z,30.52
2019-01-20T16:24:47.884Z,33.85
2019-01-20T16:27:19.865Z,34.92
2019-01-20T16:29:51.722Z,31.02
2019-01-20T16:32:23.700Z,32.65
2019-01-20T16:34:56.851Z,35.10
2019-01-20T16:37:28.827Z,31.57
2019-01-20T16:40:02.276Z,30.45
2019-01-20T16:42:34.132Z,31.35
2019-01-20T16:45:08.018Z,32.50
2019-01-20T16:47:42.938Z,30.95
2019-01-20T16:50:19.134Z,29.87
2019-01-20T16:52:54.764Z,32.58
2019-01-20T16:55:25.642Z,33.75
2019-01-20T16:57:57.551Z,31.17
2019-01-20T17:00:32.238Z,32.10
2019-01-20T17:03:06.593Z,31.55
2019-01-20T17:05:38.485Z,29.75
2019-01-20T17:08:10.870Z,31.00
2019-01-20T17:10:44.268Z,30.92
2019-01-20T17:13:16.164Z,31.10
2019-01-20T17:15:48.465Z,30.80
2019-01-20T17:18:20.336Z,31.68
2019-01-20T17:20:52.219Z,30.45
2019-01-20T17:23:24.083Z,30.90
2019-01-20T17:25:59.803Z,33.02
2019-01-20T17:28:33.412Z,30.55
2019-01-20T17:31:06.337Z,29.25
2019-01-20T17:33:38.287Z,32.75
2019-01-20T17:36:10.168Z,32.00
2019-01-20T17:38:44.651Z,33.38
2019-01-20T17:41:22.083Z,30.70
2019-01-20T17:43:56.975Z,32.28
2019-01-20T17:46:30.472Z,35.05
2019-01-20T17:49:02.293Z,42.70
2019-01-20T17:51:42.049Z,45.40
2019-01-20T17:54:18.710Z,36.20
2019-01-20T17:56:52.328Z,30.90
2019-01-20T17:59:25.279Z,32.65
2019-01-20T18:01:57.130Z,34.33
2019-01-20T18:04:28.999Z,32.65
2019-01-20T18:07:01.145Z,31.80
2019-01-20T18:09:35.735Z,32.88
2019-01-20T18:12:07.614Z,34.00
2019-01-20T18:14:42.689Z,33.80
2019-01-20T18:17:17.193Z,33.70
2019-01-20T18:19:49.042Z,34.27
2019-01-20T18:22:32.275Z,32.73
2019-01-20T18:25:04.320Z,32.00
2019-01-20T18:27:38.977Z,34.05
2019-01-20T18:30:16.045Z,31.77
2019-01-20T18:32:47.937Z,31.45
2019-01-20T18:35:20.691Z,33.55
2019-01-20T18:37:52.566Z,33.85
2019-01-20T18:40:27.008Z,33.05
2019-01-20T18:42:58.856Z,34.00
2019-01-20T18:45:32.880Z,35.03
2019-01-20T18:48:04.839Z,32.83
2019-01-20T18:50:40.696Z,34.58
2019-01-20T18:53:12.551Z,33.28
2019-01-20T18:55:47.391Z,34.38
2019-01-20T18:58:23.425Z,33.30
2019-01-20T19:00:57.351Z,36.13
2019-01-20T19:03:29.196Z,35.08
2019-01-20T19:06:17.641Z,35.60
2019-01-20T19:08:52.516Z,35.17
2019-01-20T19:11:24.342Z,33.80
2019-01-20T19:13:56.188Z,33.73
2019-01-20T19:16:28.059Z,35.85
2019-01-20T19:19:03.468Z,34.15
2019-01-20T19:21:46.790Z,35.75
2019-01-20T19:24:22.621Z,34.50
2019-01-20T19:26:54.682Z,35.38
2019-01-20T19:29:28.584Z,36.55
2019-01-20T19:32:00.449Z,35.88
2019-01-20T19:34:33.822Z,37.83
2019-01-20T19:37:05.673Z,35.48
2019-01-20T19:39:38.651Z,34.60
2019-01-20T19:42:12.231Z,36.17
2019-01-20T19:44:44.108Z,35.50
2019-01-20T19:47:19.074Z,35.52
2019-01-20T19:49:50.943Z,37.40
2019-01-20T19:52:26.808Z,36.35
2019-01-20T19:54:58.686Z,35.38
2019-01-20T19:57:35.018Z,36.80
2019-01-20T20:00:17.602Z,36.83
2019-01-20T20:02:49.584Z,36.98
2019-01-20T20:05:23.548Z,37.15
2019-01-20T20:07:57.028Z,37.05
2019-01-20T20:10:33.377Z,35.43
2019-01-20T20:13:09.775Z,37.08
2019-01-20T20:15:41.686Z,35.80
2019-01-20T20:18:14.651Z,37.28
2019-01-20T20:20:48.167Z,38.67
2019-01-20T20:23:20.053Z,36.42
2019-01-20T20:25:53.915Z,38.15
2019-01-20T20:28:28.505Z,37.65
2019-01-20T20:31:03.502Z,37.98
2019-01-20T20:33:39.865Z,35.85
2019-01-20T20:36:16.450Z,36.38
2019-01-20T20:38:48.303Z,37.03
2019-01-20T20:41:20.362Z,39.08
2019-01-20T20:43:53.413Z,37.20
2019-01-20T20:46:30.575Z,37.67
2019-01-20T20:48:58.959Z,38.53
2019-01-20T20:51:30.850Z,38.70
2019-01-20T20:54:02.745Z,39.20
2019-01-20T20:56:38.601Z,39.92
2019-01-20T20:59:13.662Z,41.37
2019-01-20T21:01:49.570Z,41.45
2019-01-20T21:04:28.987Z,41.98
2019-01-20T21:06:59.464Z,40.80
2019-01-20T21:09:34.106Z,37.55
2019-01-20T21:12:11.514Z,37.73
2019-01-20T21:14:43.397Z,38.38
2019-01-20T21:17:17.959Z,38.30
2019-01-20T21:19:49.883Z,40.23
2019-01-20T21:22:24.869Z,40.10
2019-01-20T21:25:01.447Z,38.65
2019-01-20T21:27:33.320Z,37.48
2019-01-20T21:30:07.147Z,38.63
2019-01-20T21:32:41.774Z,43.17
2019-01-20T21:35:13.058Z,36.77
2019-01-20T21:37:44.920Z,39.90
2019-01-20T21:40:17.195Z,37.88
2019-01-20T21:42:51.519Z,38.42
2019-01-20T21:45:23.380Z,36.50
2019-01-20T21:47:55.217Z,36.20
2019-01-20T21:50:33.327Z,37.13
2019-01-20T21:53:07.406Z,36.73
2019-01-20T21:55:39.312Z,35.15
2019-01-20T21:58:12.690Z,35.48
2019-01-20T22:00:44.592Z,37.17
2019-01-20T22:03:26.466Z,35.92
2019-01-20T22:05:59.313Z,34.58
2019-01-20T22:08:31.144Z,37.35
2019-01-20T22:11:06.220Z,38.20
2019-01-20T22:13:41.243Z,35.10
2019-01-20T22:16:17.329Z,36.20
2019-01-20T22:18:49.204Z,33.48
2019-01-20T22:21:21.030Z,35.70
2019-01-20T22:23:56.788Z,35.58
2019-01-20T22:26:31.656Z,35.23
2019-01-20T22:29:04.614Z,34.33
2019-01-20T22:31:38.049Z,34.05
2019-01-20T22:34:09.987Z,34.63
2019-01-20T22:36:44.827Z,33.88
2019-01-20T22:39:17.790Z,33.73
2019-01-20T22:41:49.705Z,36.83
2019-01-20T22:44:25.513Z,34.40
2019-01-20T22:47:00.321Z,34.60
2019-01-20T22:49:35.549Z,32.80
2019-01-20T22:52:07.325Z,33.83
2019-01-20T22:54:41.170Z,33.85
2019-01-20T22:57:12.697Z,34.40
2019-01-20T22:59:47.315Z,33.73
2019-01-20T23:02:20.653Z,31.60
2019-01-20T23:04:57.320Z,31.97
2019-01-20T23:07:29.156Z,33.85
2019-01-20T23:10:02.182Z,32.65
2019-01-20T23:12:34.150Z,32.45
2019-01-20T23:15:06.355Z,33.13
2019-01-20T23:17:40.770Z,31.15
2019-01-20T23:20:19.331Z,30.27
2019-01-20T23:22:52.794Z,32.90
2019-01-20T23:25:24.609Z,31.48
2019-01-20T23:27:56.595Z,31.68
2019-01-20T23:30:29.703Z,31.70
2019-01-20T23:33:01.526Z,31.40
2019-01-20T23:35:36.491Z,31.07
2019-01-20T23:38:14.626Z,32.78
2019-01-20T23:40:48.966Z,33.05
2019-01-20T23:43:22.468Z,30.90
2019-01-20T23:45:54.648Z,29.87
2019-01-20T23:48:26.481Z,30.62
2019-01-20T23:51:02.765Z,30.62
2019-01-20T23:53:34.676Z,31.40
2019-01-20T23:56:06.852Z,30.85
2019-01-20T23:58:38.671Z,30.30
